Terminal Aerodrome Forecast
Issued by NWS Dallas/Fort Worth, TX

Home | Current Version | Previous Version | Text Only | Print | Product List | Glossary On
Versions: 1 2 3 4 5 6 7 8 9 10 11 12 13 14 15 16 17 18 19 20 21 22 23 24 25
678
FTUS44 KFWD 130520
TAFACT
TAF
KACT 130520Z 1306/1406 02005KT P6SM SKC
     FM131600 08009KT P6SM BKN040
     FM131900 13011KT P6SM BKN035
     FM140100 15013KT P6SM BKN022=

USA.gov is the U.S. government's official web portal to all federal, state and local government web resources and services.